sensor_id;sensor_type;location;lat;lon;timestamp;temperature;humidity
16736;DHT22;17990;49.548;9.730;2024-01-30T00:00:09;-0.50;99.90
16736;DHT22;17990;49.548;9.730;2024-01-30T00:02:36;-0.50;99.90
16736;DHT22;17990;49.548;9.730;2024-01-30T00:05:02;-0.50;99.90
16736;DHT22;17990;49.548;9.730;2024-01-30T00:07:31;-0.50;99.90
16736;DHT22;17990;49.548;9.730;2024-01-30T00:09:58;-0.40;99.90
16736;DHT22;17990;49.548;9.730;2024-01-30T00:12:25;-0.40;99.90
16736;DHT22;17990;49.548;9.730;2024-01-30T00:14:52;-0.40;99.90
16736;DHT22;17990;49.548;9.730;2024-01-30T00:17:18;-0.30;99.90
16736;DHT22;17990;49.548;9.730;2024-01-30T00:19:46;-0.30;99.90
16736;DHT22;17990;49.548;9.730;2024-01-30T00:22:12;-0.30;99.90
16736;DHT22;17990;49.548;9.730;2024-01-30T00:24:40;-0.30;99.90
16736;DHT22;17990;49.548;9.730;2024-01-30T00:27:08;-0.20;99.90
16736;DHT22;17990;49.548;9.730;2024-01-30T00:29:34;-0.20;99.90
16736;DHT22;17990;49.548;9.730;2024-01-30T00:32:01;-0.10;99.90
16736;DHT22;17990;49.548;9.730;2024-01-30T00:34:28;-0.10;99.90
16736;DHT22;17990;49.548;9.730;2024-01-30T00:36:54;-0.10;99.90
16736;DHT22;17990;49.548;9.730;2024-01-30T00:39:21;-0.10;99.90
16736;DHT22;17990;49.548;9.730;2024-01-30T00:41:49;-0.10;99.90
16736;DHT22;17990;49.548;9.730;2024-01-30T00:44:16;0.00;99.90
16736;DHT22;17990;49.548;9.730;2024-01-30T00:46:42;0.00;99.90
16736;DHT22;17990;49.548;9.730;2024-01-30T00:49:10;0.10;99.90
16736;DHT22;17990;49.548;9.730;2024-01-30T00:51:36;0.10;99.90
16736;DHT22;17990;49.548;9.730;2024-01-30T00:54:03;0.10;99.90
16736;DHT22;17990;49.548;9.730;2024-01-30T00:56:31;0.10;99.90
16736;DHT22;17990;49.548;9.730;2024-01-30T00:59:00;0.20;99.90
16736;DHT22;17990;49.548;9.730;2024-01-30T01:01:26;0.20;99.90
16736;DHT22;17990;49.548;9.730;2024-01-30T01:03:53;0.20;99.90
16736;DHT22;17990;49.548;9.730;2024-01-30T01:06:20;0.20;99.90
16736;DHT22;17990;49.548;9.730;2024-01-30T01:08:46;0.20;99.90
16736;DHT22;17990;49.548;9.730;2024-01-30T01:11:13;0.20;99.90
16736;DHT22;17990;49.548;9.730;2024-01-30T01:13:39;0.20;99.90
16736;DHT22;17990;49.548;9.730;2024-01-30T01:16:07;0.20;99.90
16736;DHT22;17990;49.548;9.730;2024-01-30T01:18:34;0.20;99.90
16736;DHT22;17990;49.548;9.730;2024-01-30T01:21:01;0.10;99.90
16736;DHT22;17990;49.548;9.730;2024-01-30T01:23:27;0.10;99.90
16736;DHT22;17990;49.548;9.730;2024-01-30T01:25:54;0.20;99.90
16736;DHT22;17990;49.548;9.730;2024-01-30T01:28:21;0.20;99.90
16736;DHT22;17990;49.548;9.730;2024-01-30T01:30:47;0.10;99.90
16736;DHT22;17990;49.548;9.730;2024-01-30T01:33:15;0.10;99.90
16736;DHT22;17990;49.548;9.730;2024-01-30T01:35:43;0.10;99.90
16736;DHT22;17990;49.548;9.730;2024-01-30T01:38:10;0.10;99.90
16736;DHT22;17990;49.548;9.730;2024-01-30T01:40:37;0.00;99.90
16736;DHT22;17990;49.548;9.730;2024-01-30T01:43:05;-0.10;99.90
16736;DHT22;17990;49.548;9.730;2024-01-30T01:45:31;-0.10;99.90
16736;DHT22;17990;49.548;9.730;2024-01-30T01:47:58;-0.10;99.90
16736;DHT22;17990;49.548;9.730;2024-01-30T01:50:26;-0.10;99.90
16736;DHT22;17990;49.548;9.730;2024-01-30T01:52:53;-0.10;99.90
16736;DHT22;17990;49.548;9.730;2024-01-30T01:55:21;-0.20;99.90
16736;DHT22;17990;49.548;9.730;2024-01-30T01:57:50;-0.20;99.90
16736;DHT22;17990;49.548;9.730;2024-01-30T02:00:17;-0.20;99.90
16736;DHT22;17990;49.548;9.730;2024-01-30T02:02:45;-0.20;99.90
16736;DHT22;17990;49.548;9.730;2024-01-30T02:05:12;-0.30;99.90
16736;DHT22;17990;49.548;9.730;2024-01-30T02:07:41;-0.30;99.90
16736;DHT22;17990;49.548;9.730;2024-01-30T02:10:08;-0.30;99.90
16736;DHT22;17990;49.548;9.730;2024-01-30T02:12:35;-0.30;99.90
16736;DHT22;17990;49.548;9.730;2024-01-30T02:15:02;-0.40;99.90
16736;DHT22;17990;49.548;9.730;2024-01-30T02:17:30;-0.30;99.90
16736;DHT22;17990;49.548;9.730;2024-01-30T02:19:57;-0.40;99.90
16736;DHT22;17990;49.548;9.730;2024-01-30T02:22:25;-0.40;99.90
16736;DHT22;17990;49.548;9.730;2024-01-30T02:24:51;-0.40;99.90
16736;DHT22;17990;49.548;9.730;2024-01-30T02:27:18;-0.40;99.90
16736;DHT22;17990;49.548;9.730;2024-01-30T02:29:45;-0.40;99.90
16736;DHT22;17990;49.548;9.730;2024-01-30T02:32:11;-0.40;99.90
16736;DHT22;17990;49.548;9.730;2024-01-30T02:34:38;-0.30;99.90
16736;DHT22;17990;49.548;9.730;2024-01-30T02:37:05;-0.40;99.90
16736;DHT22;17990;49.548;9.730;2024-01-30T02:39:33;-0.40;99.90
16736;DHT22;17990;49.548;9.730;2024-01-30T02:41:59;-0.40;99.90
16736;DHT22;17990;49.548;9.730;2024-01-30T02:44:26;-0.50;99.90
16736;DHT22;17990;49.548;9.730;2024-01-30T02:46:53;-0.50;99.90
16736;DHT22;17990;49.548;9.730;2024-01-30T02:49:20;-0.50;99.90
16736;DHT22;17990;49.548;9.730;2024-01-30T02:51:47;-0.60;99.90
16736;DHT22;17990;49.548;9.730;2024-01-30T02:54:13;-0.60;99.90
16736;DHT22;17990;49.548;9.730;2024-01-30T02:56:41;-0.60;99.90
16736;DHT22;17990;49.548;9.730;2024-01-30T02:59:08;-0.70;99.90
16736;DHT22;17990;49.548;9.730;2024-01-30T03:01:42;-0.70;99.90
16736;DHT22;17990;49.548;9.730;2024-01-30T03:04:09;-0.80;99.90
16736;DHT22;17990;49.548;9.730;2024-01-30T03:06:36;-0.80;99.90
16736;DHT22;17990;49.548;9.730;2024-01-30T03:09:02;-0.80;99.90
16736;DHT22;17990;49.548;9.730;2024-01-30T03:11:30;-0.80;99.90
16736;DHT22;17990;49.548;9.730;2024-01-30T03:13:58;-0.80;99.90
16736;DHT22;17990;49.548;9.730;2024-01-30T03:16:24;-0.90;99.90
16736;DHT22;17990;49.548;9.730;2024-01-30T03:18:51;-0.80;99.90
16736;DHT22;17990;49.548;9.730;2024-01-30T03:21:18;-0.80;99.90
16736;DHT22;17990;49.548;9.730;2024-01-30T03:23:44;-0.80;99.90
16736;DHT22;17990;49.548;9.730;2024-01-30T03:26:11;-0.80;99.90
16736;DHT22;17990;49.548;9.730;2024-01-30T03:28:38;-0.80;99.90
16736;DHT22;17990;49.548;9.730;2024-01-30T03:31:06;-0.80;99.90
16736;DHT22;17990;49.548;9.730;2024-01-30T03:33:33;-0.80;99.90
16736;DHT22;17990;49.548;9.730;2024-01-30T03:36:03;-0.80;99.90
16736;DHT22;17990;49.548;9.730;2024-01-30T03:38:29;-0.80;99.90
16736;DHT22;17990;49.548;9.730;2024-01-30T03:40:58;-0.90;99.90
16736;DHT22;17990;49.548;9.730;2024-01-30T03:43:25;-0.90;99.90
16736;DHT22;17990;49.548;9.730;2024-01-30T03:45:51;-0.90;99.90
16736;DHT22;17990;49.548;9.730;2024-01-30T03:48:21;-1.00;99.90
16736;DHT22;17990;49.548;9.730;2024-01-30T03:50:47;-1.00;99.90
16736;DHT22;17990;49.548;9.730;2024-01-30T03:53:14;-1.00;99.90
16736;DHT22;17990;49.548;9.730;2024-01-30T03:55:41;-1.00;99.90
16736;DHT22;17990;49.548;9.730;2024-01-30T03:58:07;-1.00;99.90
16736;DHT22;17990;49.548;9.730;2024-01-30T04:00:34;-1.00;99.90
16736;DHT22;17990;49.548;9.730;2024-01-30T04:03:01;-1.00;99.90
16736;DHT22;17990;49.548;9.730;2024-01-30T04:05:29;-1.00;99.90
16736;DHT22;17990;49.548;9.730;2024-01-30T04:07:56;-1.10;99.90
16736;DHT22;17990;49.548;9.730;2024-01-30T04:10:23;-1.00;99.90
16736;DHT22;17990;49.548;9.730;2024-01-30T04:12:51;-1.00;99.90
16736;DHT22;17990;49.548;9.730;2024-01-30T04:15:19;-1.00;99.90
16736;DHT22;17990;49.548;9.730;2024-01-30T04:17:46;-1.00;99.90
16736;DHT22;17990;49.548;9.730;2024-01-30T04:20:14;-1.00;99.90
16736;DHT22;17990;49.548;9.730;2024-01-30T04:22:43;-0.90;99.90
16736;DHT22;17990;49.548;9.730;2024-01-30T04:25:10;-0.90;99.90
16736;DHT22;17990;49.548;9.730;2024-01-30T04:27:37;-1.00;99.90
16736;DHT22;17990;49.548;9.730;2024-01-30T04:30:04;-1.00;99.90
16736;DHT22;17990;49.548;9.730;2024-01-30T04:32:31;-1.00;99.90
16736;DHT22;17990;49.548;9.730;2024-01-30T04:34:58;-1.00;99.90
16736;DHT22;17990;49.548;9.730;2024-01-30T04:37:25;-1.00;99.90
16736;DHT22;17990;49.548;9.730;2024-01-30T04:39:53;-1.00;99.90
16736;DHT22;17990;49.548;9.730;2024-01-30T04:42:20;-1.10;99.90
16736;DHT22;17990;49.548;9.730;2024-01-30T04:44:46;-1.10;99.90
16736;DHT22;17990;49.548;9.730;2024-01-30T04:47:13;-1.10;99.90
16736;DHT22;17990;49.548;9.730;2024-01-30T04:49:40;-1.10;99.90
16736;DHT22;17990;49.548;9.730;2024-01-30T04:52:07;-1.10;99.90
16736;DHT22;17990;49.548;9.730;2024-01-30T04:54:34;-1.10;99.90
16736;DHT22;17990;49.548;9.730;2024-01-30T04:57:02;-1.20;99.90
16736;DHT22;17990;49.548;9.730;2024-01-30T04:59:31;-1.10;99.90
16736;DHT22;17990;49.548;9.730;2024-01-30T05:01:57;-1.10;99.90
16736;DHT22;17990;49.548;9.730;2024-01-30T05:04:24;-1.20;99.90
16736;DHT22;17990;49.548;9.730;2024-01-30T05:06:51;-1.20;99.90
16736;DHT22;17990;49.548;9.730;2024-01-30T05:09:17;-1.20;99.90
16736;DHT22;17990;49.548;9.730;2024-01-30T05:11:44;-1.20;99.90
16736;DHT22;17990;49.548;9.730;2024-01-30T05:14:12;-1.20;99.90
16736;DHT22;17990;49.548;9.730;2024-01-30T05:16:40;-1.30;99.90
16736;DHT22;17990;49.548;9.730;2024-01-30T05:19:08;-1.30;99.90
16736;DHT22;17990;49.548;9.730;2024-01-30T05:21:35;-1.30;99.90
16736;DHT22;17990;49.548;9.730;2024-01-30T05:24:01;-1.30;99.90
16736;DHT22;17990;49.548;9.730;2024-01-30T05:26:28;-1.30;99.90
16736;DHT22;17990;49.548;9.730;2024-01-30T05:28:55;-1.30;99.90
16736;DHT22;17990;49.548;9.730;2024-01-30T05:31:23;-1.30;99.90
16736;DHT22;17990;49.548;9.730;2024-01-30T05:33:51;-1.30;99.90
16736;DHT22;17990;49.548;9.730;2024-01-30T05:36:18;-1.30;99.90
16736;DHT22;17990;49.548;9.730;2024-01-30T05:38:44;-1.20;99.90
16736;DHT22;17990;49.548;9.730;2024-01-30T05:41:11;-1.20;99.90
16736;DHT22;17990;49.548;9.730;2024-01-30T05:43:38;-1.20;99.90
16736;DHT22;17990;49.548;9.730;2024-01-30T05:46:05;-1.10;99.90
16736;DHT22;17990;49.548;9.730;2024-01-30T05:48:33;-1.10;99.90
16736;DHT22;17990;49.548;9.730;2024-01-30T05:51:00;-1.10;99.90
16736;DHT22;17990;49.548;9.730;2024-01-30T05:53:27;-1.10;99.90
16736;DHT22;17990;49.548;9.730;2024-01-30T05:55:54;-1.10;99.90
16736;DHT22;17990;49.548;9.730;2024-01-30T05:58:20;-1.10;99.90
16736;DHT22;17990;49.548;9.730;2024-01-30T06:00:47;-1.10;99.90
16736;DHT22;17990;49.548;9.730;2024-01-30T06:03:14;-1.20;99.90
16736;DHT22;17990;49.548;9.730;2024-01-30T06:05:42;-1.20;99.90
16736;DHT22;17990;49.548;9.730;2024-01-30T06:08:08;-1.20;99.90
16736;DHT22;17990;49.548;9.730;2024-01-30T06:10:35;-1.30;99.90
16736;DHT22;17990;49.548;9.730;2024-01-30T06:13:02;-1.30;99.90
16736;DHT22;17990;49.548;9.730;2024-01-30T06:15:29;-1.30;99.90
16736;DHT22;17990;49.548;9.730;2024-01-30T06:17:55;-1.30;99.90
16736;DHT22;17990;49.548;9.730;2024-01-30T06:20:22;-1.30;99.90
16736;DHT22;17990;49.548;9.730;2024-01-30T06:22:50;-1.30;99.90
16736;DHT22;17990;49.548;9.730;2024-01-30T06:25:17;-1.30;99.90
16736;DHT22;17990;49.548;9.730;2024-01-30T06:27:43;-1.30;99.90
16736;DHT22;17990;49.548;9.730;2024-01-30T06:30:11;-1.30;99.90
16736;DHT22;17990;49.548;9.730;2024-01-30T06:32:38;-1.20;99.90
16736;DHT22;17990;49.548;9.730;2024-01-30T06:35:06;-1.30;99.90
16736;DHT22;17990;49.548;9.730;2024-01-30T06:37:33;-1.30;99.90
16736;DHT22;17990;49.548;9.730;2024-01-30T06:40:01;-1.30;99.90
16736;DHT22;17990;49.548;9.730;2024-01-30T06:42:28;-1.30;99.90
16736;DHT22;17990;49.548;9.730;2024-01-30T06:44:54;-1.30;99.90
16736;DHT22;17990;49.548;9.730;2024-01-30T06:47:21;-1.40;99.90
16736;DHT22;17990;49.548;9.730;2024-01-30T06:49:48;-1.40;99.90
16736;DHT22;17990;49.548;9.730;2024-01-30T06:52:14;-1.40;99.90
16736;DHT22;17990;49.548;9.730;2024-01-30T06:54:41;-1.30;99.90
16736;DHT22;17990;49.548;9.730;2024-01-30T06:57:09;-1.30;99.90
16736;DHT22;17990;49.548;9.730;2024-01-30T06:59:37;-1.30;99.90
16736;DHT22;17990;49.548;9.730;2024-01-30T07:02:08;-1.30;99.90
16736;DHT22;17990;49.548;9.730;2024-01-30T07:04:35;-1.30;99.90
16736;DHT22;17990;49.548;9.730;2024-01-30T07:07:03;-1.30;99.90
16736;DHT22;17990;49.548;9.730;2024-01-30T07:09:31;-1.20;99.90
16736;DHT22;17990;49.548;9.730;2024-01-30T07:11:58;-1.20;99.90
16736;DHT22;17990;49.548;9.730;2024-01-30T07:14:26;-1.20;99.90
16736;DHT22;17990;49.548;9.730;2024-01-30T07:16:52;-1.10;99.90
16736;DHT22;17990;49.548;9.730;2024-01-30T07:19:19;-1.10;99.90
16736;DHT22;17990;49.548;9.730;2024-01-30T07:21:46;-1.00;99.90
16736;DHT22;17990;49.548;9.730;2024-01-30T07:24:12;-1.00;99.90
16736;DHT22;17990;49.548;9.730;2024-01-30T07:26:39;-1.00;99.90
16736;DHT22;17990;49.548;9.730;2024-01-30T07:29:06;-0.90;99.90
16736;DHT22;17990;49.548;9.730;2024-01-30T07:31:34;-0.90;99.90
16736;DHT22;17990;49.548;9.730;2024-01-30T07:34:01;-0.90;99.90
16736;DHT22;17990;49.548;9.730;2024-01-30T07:36:28;-0.80;99.90
16736;DHT22;17990;49.548;9.730;2024-01-30T07:38:55;-0.80;99.90
16736;DHT22;17990;49.548;9.730;2024-01-30T07:41:22;-0.70;99.90
16736;DHT22;17990;49.548;9.730;2024-01-30T07:43:50;-0.60;99.90
16736;DHT22;17990;49.548;9.730;2024-01-30T07:46:17;-0.60;99.90
16736;DHT22;17990;49.548;9.730;2024-01-30T07:48:45;-0.60;99.90
16736;DHT22;17990;49.548;9.730;2024-01-30T07:51:12;-0.50;99.90
16736;DHT22;17990;49.548;9.730;2024-01-30T07:53:39;-0.50;99.90
16736;DHT22;17990;49.548;9.730;2024-01-30T07:56:06;-0.40;99.90
16736;DHT22;17990;49.548;9.730;2024-01-30T07:58:32;-0.30;99.90
16736;DHT22;17990;49.548;9.730;2024-01-30T08:00:59;-0.30;99.90
16736;DHT22;17990;49.548;9.730;2024-01-30T08:03:26;-0.20;99.90
16736;DHT22;17990;49.548;9.730;2024-01-30T08:05:54;-0.10;99.90
16736;DHT22;17990;49.548;9.730;2024-01-30T08:08:21;-0.10;99.90
16736;DHT22;17990;49.548;9.730;2024-01-30T08:10:47;0.00;99.90
16736;DHT22;17990;49.548;9.730;2024-01-30T08:13:15;-0.10;99.90
16736;DHT22;17990;49.548;9.730;2024-01-30T08:15:42;0.00;99.90
16736;DHT22;17990;49.548;9.730;2024-01-30T08:18:08;0.00;99.90
16736;DHT22;17990;49.548;9.730;2024-01-30T08:20:35;0.10;99.90
16736;DHT22;17990;49.548;9.730;2024-01-30T08:23:03;0.30;99.90
16736;DHT22;17990;49.548;9.730;2024-01-30T08:25:30;0.40;99.90
16736;DHT22;17990;49.548;9.730;2024-01-30T08:27:57;0.50;99.90
16736;DHT22;17990;49.548;9.730;2024-01-30T08:30:24;0.60;99.90
16736;DHT22;17990;49.548;9.730;2024-01-30T08:32:50;0.70;99.90
16736;DHT22;17990;49.548;9.730;2024-01-30T08:35:17;0.60;99.90
16736;DHT22;17990;49.548;9.730;2024-01-30T08:37:44;0.70;99.90
16736;DHT22;17990;49.548;9.730;2024-01-30T08:40:12;0.90;99.90
16736;DHT22;17990;49.548;9.730;2024-01-30T08:42:39;1.00;99.90
16736;DHT22;17990;49.548;9.730;2024-01-30T08:45:06;1.00;99.90
16736;DHT22;17990;49.548;9.730;2024-01-30T08:47:33;1.20;99.90
16736;DHT22;17990;49.548;9.730;2024-01-30T08:50:00;1.40;99.90
16736;DHT22;17990;49.548;9.730;2024-01-30T08:52:27;1.50;99.90
16736;DHT22;17990;49.548;9.730;2024-01-30T08:54:53;1.70;99.90
16736;DHT22;17990;49.548;9.730;2024-01-30T08:57:22;1.90;99.90
16736;DHT22;17990;49.548;9.730;2024-01-30T08:59:48;2.20;99.90
16736;DHT22;17990;49.548;9.730;2024-01-30T09:02:15;2.20;99.90
16736;DHT22;17990;49.548;9.730;2024-01-30T09:04:43;2.30;99.90
16736;DHT22;17990;49.548;9.730;2024-01-30T09:07:10;2.30;99.90
16736;DHT22;17990;49.548;9.730;2024-01-30T09:09:38;2.30;99.90
16736;DHT22;17990;49.548;9.730;2024-01-30T09:12:07;2.30;99.90
16736;DHT22;17990;49.548;9.730;2024-01-30T09:14:36;2.40;99.90
16736;DHT22;17990;49.548;9.730;2024-01-30T09:17:03;2.30;99.90
16736;DHT22;17990;49.548;9.730;2024-01-30T09:19:30;2.50;99.90
16736;DHT22;17990;49.548;9.730;2024-01-30T09:21:57;2.70;99.90
16736;DHT22;17990;49.548;9.730;2024-01-30T09:24:24;2.80;99.90
16736;DHT22;17990;49.548;9.730;2024-01-30T09:26:51;2.90;99.90
16736;DHT22;17990;49.548;9.730;2024-01-30T09:29:18;3.00;99.90
16736;DHT22;17990;49.548;9.730;2024-01-30T09:31:46;3.20;99.90
16736;DHT22;17990;49.548;9.730;2024-01-30T09:34:13;3.20;99.90
16736;DHT22;17990;49.548;9.730;2024-01-30T09:36:40;3.10;99.90
16736;DHT22;17990;49.548;9.730;2024-01-30T09:39:07;3.30;99.90
16736;DHT22;17990;49.548;9.730;2024-01-30T09:41:40;3.40;99.90
16736;DHT22;17990;49.548;9.730;2024-01-30T09:44:09;3.40;99.90
16736;DHT22;17990;49.548;9.730;2024-01-30T09:46:37;3.50;99.90
16736;DHT22;17990;49.548;9.730;2024-01-30T09:49:06;3.70;99.90
16736;DHT22;17990;49.548;9.730;2024-01-30T09:51:50;3.80;99.90
16736;DHT22;17990;49.548;9.730;2024-01-30T09:54:18;3.90;99.90
16736;DHT22;17990;49.548;9.730;2024-01-30T09:56:45;4.00;99.90
16736;DHT22;17990;49.548;9.730;2024-01-30T09:59:11;4.10;99.90
16736;DHT22;17990;49.548;9.730;2024-01-30T10:01:38;4.20;99.90
16736;DHT22;17990;49.548;9.730;2024-01-30T10:04:07;4.30;99.90
16736;DHT22;17990;49.548;9.730;2024-01-30T10:06:34;4.40;99.90
16736;DHT22;17990;49.548;9.730;2024-01-30T10:09:01;4.40;99.90
16736;DHT22;17990;49.548;9.730;2024-01-30T10:11:28;4.50;99.90
16736;DHT22;17990;49.548;9.730;2024-01-30T10:13:55;4.60;99.90
16736;DHT22;17990;49.548;9.730;2024-01-30T10:16:21;4.60;99.90
16736;DHT22;17990;49.548;9.730;2024-01-30T10:18:49;4.70;99.90
16736;DHT22;17990;49.548;9.730;2024-01-30T10:21:17;4.80;99.90
16736;DHT22;17990;49.548;9.730;2024-01-30T10:23:44;4.90;99.90
16736;DHT22;17990;49.548;9.730;2024-01-30T10:26:11;4.90;99.90
16736;DHT22;17990;49.548;9.730;2024-01-30T10:28:38;4.80;99.90
16736;DHT22;17990;49.548;9.730;2024-01-30T10:31:04;5.00;99.90
16736;DHT22;17990;49.548;9.730;2024-01-30T10:33:31;5.00;99.90
16736;DHT22;17990;49.548;9.730;2024-01-30T10:36:01;5.10;99.90
16736;DHT22;17990;49.548;9.730;2024-01-30T10:38:30;5.20;99.90
16736;DHT22;17990;49.548;9.730;2024-01-30T10:40:59;5.30;99.90
16736;DHT22;17990;49.548;9.730;2024-01-30T10:43:31;5.30;99.90
16736;DHT22;17990;49.548;9.730;2024-01-30T10:46:04;5.30;99.90
16736;DHT22;17990;49.548;9.730;2024-01-30T10:48:36;5.40;99.90
16736;DHT22;17990;49.548;9.730;2024-01-30T10:51:05;5.50;99.90
16736;DHT22;17990;49.548;9.730;2024-01-30T10:53:34;5.60;99.90
16736;DHT22;17990;49.548;9.730;2024-01-30T10:56:02;5.70;99.90
16736;DHT22;17990;49.548;9.730;2024-01-30T10:58:30;5.70;99.90
16736;DHT22;17990;49.548;9.730;2024-01-30T11:00:57;5.80;99.90
16736;DHT22;17990;49.548;9.730;2024-01-30T11:03:24;5.90;99.90
16736;DHT22;17990;49.548;9.730;2024-01-30T11:05:52;6.10;99.90
16736;DHT22;17990;49.548;9.730;2024-01-30T11:08:24;6.00;99.90
16736;DHT22;17990;49.548;9.730;2024-01-30T11:10:56;6.10;99.90
16736;DHT22;17990;49.548;9.730;2024-01-30T11:13:27;6.20;99.90
16736;DHT22;17990;49.548;9.730;2024-01-30T11:15:54;6.30;99.90
16736;DHT22;17990;49.548;9.730;2024-01-30T11:18:24;6.50;99.90
16736;DHT22;17990;49.548;9.730;2024-01-30T11:20:51;6.60;99.90
16736;DHT22;17990;49.548;9.730;2024-01-30T11:23:18;6.70;99.90
16736;DHT22;17990;49.548;9.730;2024-01-30T11:25:48;6.70;99.90
16736;DHT22;17990;49.548;9.730;2024-01-30T11:28:16;6.80;99.90
16736;DHT22;17990;49.548;9.730;2024-01-30T11:30:44;6.90;99.90
16736;DHT22;17990;49.548;9.730;2024-01-30T11:33:13;6.90;99.90
16736;DHT22;17990;49.548;9.730;2024-01-30T11:35:41;6.90;99.90
16736;DHT22;17990;49.548;9.730;2024-01-30T11:38:09;7.00;99.90
16736;DHT22;17990;49.548;9.730;2024-01-30T11:40:38;7.20;99.90
16736;DHT22;17990;49.548;9.730;2024-01-30T11:43:06;7.30;99.90
16736;DHT22;17990;49.548;9.730;2024-01-30T11:45:35;7.40;99.90
16736;DHT22;17990;49.548;9.730;2024-01-30T11:48:03;7.50;99.90
16736;DHT22;17990;49.548;9.730;2024-01-30T11:50:30;7.60;99.90
16736;DHT22;17990;49.548;9.730;2024-01-30T11:52:58;7.80;99.90
16736;DHT22;17990;49.548;9.730;2024-01-30T11:55:25;7.90;99.90
16736;DHT22;17990;49.548;9.730;2024-01-30T11:57:55;8.00;99.90
16736;DHT22;17990;49.548;9.730;2024-01-30T12:00:22;8.00;99.90
16736;DHT22;17990;49.548;9.730;2024-01-30T12:02:51;8.10;99.90
16736;DHT22;17990;49.548;9.730;2024-01-30T12:05:22;8.10;99.90
16736;DHT22;17990;49.548;9.730;2024-01-30T12:07:48;8.20;99.90
16736;DHT22;17990;49.548;9.730;2024-01-30T12:10:15;8.20;99.90
16736;DHT22;17990;49.548;9.730;2024-01-30T12:12:45;8.30;99.90
16736;DHT22;17990;49.548;9.730;2024-01-30T12:15:12;8.30;99.90
16736;DHT22;17990;49.548;9.730;2024-01-30T12:17:39;8.60;99.90
16736;DHT22;17990;49.548;9.730;2024-01-30T12:20:09;8.80;99.90
16736;DHT22;17990;49.548;9.730;2024-01-30T12:22:40;9.00;99.90
16736;DHT22;17990;49.548;9.730;2024-01-30T12:25:08;9.10;99.90
16736;DHT22;17990;49.548;9.730;2024-01-30T12:27:35;9.00;99.90
16736;DHT22;17990;49.548;9.730;2024-01-30T12:30:05;9.10;99.90
16736;DHT22;17990;49.548;9.730;2024-01-30T12:32:34;9.30;99.90
16736;DHT22;17990;49.548;9.730;2024-01-30T12:35:01;9.40;99.90
16736;DHT22;17990;49.548;9.730;2024-01-30T12:37:30;9.50;99.90
16736;DHT22;17990;49.548;9.730;2024-01-30T12:39:57;9.70;99.90
16736;DHT22;17990;49.548;9.730;2024-01-30T12:42:24;9.90;99.90
16736;DHT22;17990;49.548;9.730;2024-01-30T12:44:53;10.00;99.90
16736;DHT22;17990;49.548;9.730;2024-01-30T12:47:21;10.00;99.90
16736;DHT22;17990;49.548;9.730;2024-01-30T12:49:48;10.00;99.90
16736;DHT22;17990;49.548;9.730;2024-01-30T12:52:19;10.00;99.90
16736;DHT22;17990;49.548;9.730;2024-01-30T12:54:48;10.10;99.90
16736;DHT22;17990;49.548;9.730;2024-01-30T12:57:15;10.10;99.90
16736;DHT22;17990;49.548;9.730;2024-01-30T12:59:42;10.20;99.90
16736;DHT22;17990;49.548;9.730;2024-01-30T13:02:09;10.30;99.90
16736;DHT22;17990;49.548;9.730;2024-01-30T13:04:35;10.40;99.90
16736;DHT22;17990;49.548;9.730;2024-01-30T13:07:03;10.30;99.90
16736;DHT22;17990;49.548;9.730;2024-01-30T13:09:30;10.40;99.90
16736;DHT22;17990;49.548;9.730;2024-01-30T13:11:58;10.50;99.90
16736;DHT22;17990;49.548;9.730;2024-01-30T13:14:25;10.60;99.90
16736;DHT22;17990;49.548;9.730;2024-01-30T13:16:52;10.70;99.90
16736;DHT22;17990;49.548;9.730;2024-01-30T13:19:19;10.70;99.90
16736;DHT22;17990;49.548;9.730;2024-01-30T13:21:46;10.70;99.90
16736;DHT22;17990;49.548;9.730;2024-01-30T13:24:13;10.80;99.90
16736;DHT22;17990;49.548;9.730;2024-01-30T13:26:42;10.80;99.90
16736;DHT22;17990;49.548;9.730;2024-01-30T13:29:10;10.90;99.90
16736;DHT22;17990;49.548;9.730;2024-01-30T13:31:36;10.90;99.90
16736;DHT22;17990;49.548;9.730;2024-01-30T13:34:04;10.90;99.90
16736;DHT22;17990;49.548;9.730;2024-01-30T13:36:32;11.00;99.90
16736;DHT22;17990;49.548;9.730;2024-01-30T13:38:59;10.90;99.90
16736;DHT22;17990;49.548;9.730;2024-01-30T13:41:26;10.90;99.90
16736;DHT22;17990;49.548;9.730;2024-01-30T13:43:52;11.00;99.90
16736;DHT22;17990;49.548;9.730;2024-01-30T13:46:20;11.00;99.90
16736;DHT22;17990;49.548;9.730;2024-01-30T13:48:47;11.10;99.90
16736;DHT22;17990;49.548;9.730;2024-01-30T13:51:14;11.10;99.90
16736;DHT22;17990;49.548;9.730;2024-01-30T13:53:42;11.10;99.90
16736;DHT22;17990;49.548;9.730;2024-01-30T13:56:09;11.00;99.90
16736;DHT22;17990;49.548;9.730;2024-01-30T13:58:35;11.00;99.90
16736;DHT22;17990;49.548;9.730;2024-01-30T14:01:02;10.90;99.90
16736;DHT22;17990;49.548;9.730;2024-01-30T14:03:31;10.80;99.90
16736;DHT22;17990;49.548;9.730;2024-01-30T14:05:58;10.70;99.90
16736;DHT22;17990;49.548;9.730;2024-01-30T14:08:25;10.70;99.90
16736;DHT22;17990;49.548;9.730;2024-01-30T14:10:53;10.60;99.90
16736;DHT22;17990;49.548;9.730;2024-01-30T14:13:20;10.70;99.90
16736;DHT22;17990;49.548;9.730;2024-01-30T14:15:48;10.70;99.90
16736;DHT22;17990;49.548;9.730;2024-01-30T14:18:14;10.70;99.90
16736;DHT22;17990;49.548;9.730;2024-01-30T14:20:43;10.60;99.90
16736;DHT22;17990;49.548;9.730;2024-01-30T14:23:10;10.60;99.90
16736;DHT22;17990;49.548;9.730;2024-01-30T14:25:36;10.70;99.90
16736;DHT22;17990;49.548;9.730;2024-01-30T14:28:04;10.60;99.90
16736;DHT22;17990;49.548;9.730;2024-01-30T14:30:30;10.50;99.90
16736;DHT22;17990;49.548;9.730;2024-01-30T14:32:57;10.50;99.90
16736;DHT22;17990;49.548;9.730;2024-01-30T14:35:24;10.50;99.90
16736;DHT22;17990;49.548;9.730;2024-01-30T14:37:52;10.40;99.90
16736;DHT22;17990;49.548;9.730;2024-01-30T14:40:19;10.40;99.90
16736;DHT22;17990;49.548;9.730;2024-01-30T14:42:45;10.40;99.90
16736;DHT22;17990;49.548;9.730;2024-01-30T14:45:12;10.40;99.90
16736;DHT22;17990;49.548;9.730;2024-01-30T14:47:39;10.30;99.90
16736;DHT22;17990;49.548;9.730;2024-01-30T14:50:06;10.30;99.90
16736;DHT22;17990;49.548;9.730;2024-01-30T14:52:33;10.20;99.90
16736;DHT22;17990;49.548;9.730;2024-01-30T14:55:01;10.20;99.90
16736;DHT22;17990;49.548;9.730;2024-01-30T14:57:28;10.10;99.90
16736;DHT22;17990;49.548;9.730;2024-01-30T14:59:55;10.10;99.90
16736;DHT22;17990;49.548;9.730;2024-01-30T15:02:21;10.00;99.90
16736;DHT22;17990;49.548;9.730;2024-01-30T15:04:48;9.90;99.90
16736;DHT22;17990;49.548;9.730;2024-01-30T15:07:15;9.80;99.90
16736;DHT22;17990;49.548;9.730;2024-01-30T15:09:41;9.80;99.90
16736;DHT22;17990;49.548;9.730;2024-01-30T15:12:09;9.70;99.90
16736;DHT22;17990;49.548;9.730;2024-01-30T15:14:36;9.70;99.90
16736;DHT22;17990;49.548;9.730;2024-01-30T15:17:03;9.70;99.90
16736;DHT22;17990;49.548;9.730;2024-01-30T15:19:30;9.60;99.90
16736;DHT22;17990;49.548;9.730;2024-01-30T15:21:56;9.50;99.90
16736;DHT22;17990;49.548;9.730;2024-01-30T15:24:23;9.40;99.90
16736;DHT22;17990;49.548;9.730;2024-01-30T15:26:50;9.40;99.90
16736;DHT22;17990;49.548;9.730;2024-01-30T15:29:18;9.40;99.90
16736;DHT22;17990;49.548;9.730;2024-01-30T15:31:46;9.30;99.90
16736;DHT22;17990;49.548;9.730;2024-01-30T15:34:13;9.30;99.90
16736;DHT22;17990;49.548;9.730;2024-01-30T15:36:40;9.30;99.90